createdAt,value
2022-12-13T00:00:20.340Z,100217.72
2022-12-13T00:03:08.205Z,100212.91
2022-12-13T00:05:54.710Z,100210.59
2022-12-13T00:08:41.848Z,100203.31
2022-12-13T00:11:28.608Z,100213.19
2022-12-13T00:14:14.469Z,100217.47
2022-12-13T00:17:00.256Z,100216.91
2022-12-13T00:19:48.127Z,100223.09
2022-12-13T00:22:33.729Z,100231.59
2022-12-13T00:25:22.105Z,100231.75
2022-12-13T00:28:08.737Z,100229.00
2022-12-13T00:31:27.007Z,100233.97
2022-12-13T00:34:07.990Z,100238.19
2022-12-13T00:36:55.104Z,100246.72
2022-12-13T00:39:41.143Z,100241.91
2022-12-13T00:42:26.783Z,100249.84
2022-12-13T00:45:12.379Z,100252.88
2022-12-13T00:47:58.133Z,100255.38
2022-12-13T00:50:43.761Z,100256.59
2022-12-13T00:53:29.270Z,100246.16
2022-12-13T00:56:36.792Z,100263.03
2022-12-13T00:59:22.202Z,100250.69
2022-12-13T01:02:07.882Z,100258.78
2022-12-13T01:04:53.768Z,100256.88
2022-12-13T01:07:44.430Z,100247.81
2022-12-13T01:10:30.443Z,100256.19
2022-12-13T01:13:15.969Z,100251.91
2022-12-13T01:16:05.494Z,100250.97
2022-12-13T01:18:51.420Z,100249.72
2022-12-13T01:21:38.306Z,100245.06
2022-12-13T01:24:26.193Z,100243.44
2022-12-13T01:27:12.177Z,100253.44
2022-12-13T01:29:57.535Z,100251.38
2022-12-13T01:32:42.907Z,100247.25
2022-12-13T01:35:28.369Z,100242.31
2022-12-13T01:38:15.660Z,100239.03
2022-12-13T01:41:02.552Z,100231.31
2022-12-13T01:44:06.618Z,100246.13
2022-12-13T01:46:54.082Z,100235.56
2022-12-13T01:49:40.059Z,100243.53
2022-12-13T01:52:28.439Z,100249.16
2022-12-13T01:55:18.546Z,100251.47
2022-12-13T01:58:05.994Z,100254.19
2022-12-13T02:00:52.461Z,100254.00
2022-12-13T02:03:38.129Z,100270.22
2022-12-13T02:06:47.543Z,100267.94
2022-12-13T02:09:36.099Z,100258.94
2022-12-13T02:12:21.997Z,100257.59
2022-12-13T02:15:18.929Z,100269.00
2022-12-13T02:18:25.719Z,100271.41
2022-12-13T02:21:42.930Z,100263.34
2022-12-13T02:25:03.705Z,100265.25
2022-12-13T02:28:43.104Z,100263.06
2022-12-13T02:31:49.093Z,100255.41
2022-12-13T02:34:57.821Z,100257.03
2022-12-13T02:38:29.511Z,100256.75
2022-12-13T02:41:51.353Z,100252.63
2022-12-13T02:44:47.178Z,100260.09
2022-12-13T02:47:37.597Z,100266.22
2022-12-13T02:50:26.175Z,100270.63
2022-12-13T02:53:15.306Z,100271.75
2022-12-13T02:56:01.120Z,100273.31
2022-12-13T02:58:54.471Z,100281.97
2022-12-13T03:02:31.486Z,100281.94
2022-12-13T03:06:13.894Z,100284.81
2022-12-13T03:09:33.900Z,100284.25
2022-12-13T03:12:50.446Z,100277.75
2022-12-13T03:15:56.502Z,100281.38
2022-12-13T03:18:43.453Z,100276.94
2022-12-13T03:21:30.007Z,100275.00
2022-12-13T03:24:21.825Z,100276.03
2022-12-13T03:27:07.609Z,100279.06
2022-12-13T03:29:53.142Z,100283.84
2022-12-13T03:32:38.709Z,100283.81
2022-12-13T03:35:25.107Z,100279.47
2022-12-13T03:38:21.800Z,100276.81
2022-12-13T03:41:17.751Z,100286.06
2022-12-13T03:44:08.650Z,100283.22
2022-12-13T03:46:54.253Z,100285.13
2022-12-13T03:49:39.754Z,100281.13
2022-12-13T03:52:25.447Z,100285.44
2022-12-13T03:55:11.274Z,100290.69
2022-12-13T03:57:57.116Z,100292.16
2022-12-13T04:00:42.703Z,100292.28
2022-12-13T04:03:28.863Z,100288.09
2022-12-13T04:06:21.626Z,100293.81
2022-12-13T04:09:08.509Z,100284.63
2022-12-13T04:12:15.689Z,100280.44
2022-12-13T04:15:01.361Z,100282.13
2022-12-13T04:17:51.216Z,100287.72
2022-12-13T04:20:37.114Z,100283.47
2022-12-13T04:23:23.488Z,100281.50
2022-12-13T04:26:09.429Z,100283.59
2022-12-13T04:28:55.110Z,100279.38
2022-12-13T04:31:40.864Z,100284.59
2022-12-13T04:34:28.047Z,100282.91
2022-12-13T04:37:16.670Z,100287.97
2022-12-13T04:40:02.406Z,100295.34
2022-12-13T04:42:47.999Z,100289.81
2022-12-13T04:45:39.796Z,100290.63
2022-12-13T04:48:30.682Z,100299.97
2022-12-13T04:51:17.265Z,100300.09
2022-12-13T04:54:23.484Z,100296.69
2022-12-13T04:57:11.632Z,100293.69
2022-12-13T04:59:57.601Z,100298.03
2022-12-13T05:02:43.664Z,100294.78
2022-12-13T05:05:29.326Z,100286.19
2022-12-13T05:08:14.961Z,100297.31
2022-12-13T05:11:00.863Z,100291.97
2022-12-13T05:13:46.384Z,100302.25
2022-12-13T05:16:31.793Z,100301.69
2022-12-13T05:19:17.512Z,100296.09
2022-12-13T05:22:02.987Z,100309.72
2022-12-13T05:24:49.055Z,100300.03
2022-12-13T05:27:34.506Z,100297.34
2022-12-13T05:30:20.686Z,100301.97
2022-12-13T05:33:06.122Z,100290.00
2022-12-13T05:35:57.699Z,100301.94
2022-12-13T05:38:46.043Z,100304.84
2022-12-13T05:41:35.871Z,100316.75
2022-12-13T05:44:21.492Z,100308.75
2022-12-13T05:47:06.940Z,100302.56
2022-12-13T05:49:52.474Z,100308.31
2022-12-13T05:52:38.018Z,100317.53
2022-12-13T05:55:23.887Z,100313.81
2022-12-13T05:58:13.274Z,100314.44
2022-12-13T06:01:12.994Z,100322.25
2022-12-13T06:03:58.848Z,100314.69
2022-12-13T06:06:44.913Z,100318.06
2022-12-13T06:09:30.951Z,100315.56
2022-12-13T06:12:31.422Z,100316.28
2022-12-13T06:15:22.421Z,100316.53
2022-12-13T06:18:08.641Z,100321.78
2022-12-13T06:21:00.276Z,100324.50
2022-12-13T06:23:46.242Z,100337.13
2022-12-13T06:26:31.855Z,100327.31
2022-12-13T06:29:24.226Z,100333.75
2022-12-13T06:32:11.592Z,100334.25
2022-12-13T06:34:57.748Z,100322.66
2022-12-13T06:37:43.328Z,100334.78
2022-12-13T06:40:33.841Z,100339.59
2022-12-13T06:43:21.322Z,100334.16
2022-12-13T06:46:07.181Z,100339.78
2022-12-13T06:48:55.007Z,100348.31
2022-12-13T06:51:40.548Z,100348.69
2022-12-13T06:54:26.162Z,100356.88
2022-12-13T06:57:12.938Z,100356.66
2022-12-13T06:59:58.437Z,100354.81
2022-12-13T07:02:43.922Z,100365.66
2022-12-13T07:05:29.663Z,100368.00
2022-12-13T07:08:22.141Z,100366.84
2022-12-13T07:11:13.490Z,100363.19
2022-12-13T07:14:00.117Z,100371.25
2022-12-13T07:16:45.769Z,100366.63
2022-12-13T07:19:35.330Z,100367.81
2022-12-13T07:22:21.487Z,100376.91
2022-12-13T07:25:07.775Z,100368.25
2022-12-13T07:28:13.285Z,100377.16
2022-12-13T07:31:02.414Z,100379.03
2022-12-13T07:33:47.814Z,100385.16
2022-12-13T07:36:33.307Z,100385.31
2022-12-13T07:39:19.220Z,100390.31
2022-12-13T07:42:04.750Z,100394.00
2022-12-13T07:44:49.983Z,100392.84
2022-12-13T07:47:35.491Z,100400.00
2022-12-13T07:50:23.973Z,100401.28
2022-12-13T07:53:11.681Z,100391.97
2022-12-13T07:55:57.323Z,100396.50
2022-12-13T07:58:44.088Z,100406.75
2022-12-13T08:01:34.554Z,100403.03
2022-12-13T08:04:20.486Z,100401.31
2022-12-13T08:07:09.996Z,100405.59
2022-12-13T08:09:55.776Z,100403.19
2022-12-13T08:12:41.309Z,100409.28
2022-12-13T08:15:26.801Z,100415.06
2022-12-13T08:18:12.275Z,100406.88
2022-12-13T08:21:23.917Z,100414.97
2022-12-13T08:24:15.689Z,100419.94
2022-12-13T08:27:03.283Z,100414.50
2022-12-13T08:29:49.296Z,100422.34
2022-12-13T08:32:34.684Z,100414.75
2022-12-13T08:35:19.989Z,100417.78
2022-12-13T08:38:05.575Z,100427.75
2022-12-13T08:40:51.404Z,100425.13
2022-12-13T08:43:37.792Z,100431.31
2022-12-13T08:46:23.212Z,100430.91
2022-12-13T08:49:08.618Z,100429.44
2022-12-13T08:51:54.503Z,100427.75
2022-12-13T08:54:39.800Z,100426.69
2022-12-13T08:57:25.376Z,100432.97
2022-12-13T09:00:19.900Z,100436.91
2022-12-13T09:03:09.836Z,100424.03
2022-12-13T09:06:10.538Z,100437.75
2022-12-13T09:08:56.163Z,100437.28
2022-12-13T09:11:42.109Z,100440.50
2022-12-13T09:14:33.650Z,100445.44
2022-12-13T09:17:24.069Z,100436.81
2022-12-13T09:20:29.766Z,100437.50
2022-12-13T09:23:24.139Z,100430.06
2022-12-13T09:26:16.434Z,100436.44
2022-12-13T09:29:10.759Z,100443.97
2022-12-13T09:31:57.936Z,100444.34
2022-12-13T09:34:43.473Z,100442.88
2022-12-13T09:37:32.175Z,100456.50
2022-12-13T09:40:26.646Z,100451.53
2022-12-13T09:43:32.031Z,100444.94
2022-12-13T09:46:44.688Z,100451.28
2022-12-13T09:49:36.998Z,100452.63
2022-12-13T09:52:25.800Z,100460.59
2022-12-13T09:55:30.264Z,100461.41
2022-12-13T09:58:26.371Z,100462.66
2022-12-13T10:01:12.528Z,100463.50
2022-12-13T10:04:00.483Z,100460.63
2022-12-13T10:06:46.190Z,100458.81
2022-12-13T10:09:32.432Z,100465.31
2022-12-13T10:12:18.161Z,100459.00
2022-12-13T10:15:04.713Z,100465.91
2022-12-13T10:17:55.241Z,100468.63
2022-12-13T10:20:42.287Z,100461.13
2022-12-13T10:23:42.810Z,100464.34
2022-12-13T10:26:39.129Z,100471.59
2022-12-13T10:29:24.561Z,100480.03
2022-12-13T10:32:13.810Z,100470.94
2022-12-13T10:34:59.281Z,100477.25
2022-12-13T10:37:44.799Z,100474.25
2022-12-13T10:40:48.827Z,100477.56
2022-12-13T10:43:36.096Z,100471.25
2022-12-13T10:46:24.827Z,100484.97
2022-12-13T10:49:25.223Z,100474.59
2022-12-13T10:52:33.674Z,100476.94
2022-12-13T10:55:28.902Z,100468.28
2022-12-13T10:58:19.938Z,100464.97
2022-12-13T11:01:21.509Z,100470.19
2022-12-13T11:04:34.699Z,100467.06
2022-12-13T11:07:34.186Z,100465.13
2022-12-13T11:10:29.747Z,100468.28
2022-12-13T11:13:44.799Z,100466.09
2022-12-13T11:16:40.619Z,100465.81
2022-12-13T11:19:48.025Z,100461.44
2022-12-13T11:22:38.413Z,100464.44
2022-12-13T11:25:30.692Z,100468.81
2022-12-13T11:28:31.845Z,100464.34
2022-12-13T11:32:13.123Z,100463.38
2022-12-13T11:36:00.680Z,100477.09
2022-12-13T11:39:13.205Z,100485.88
2022-12-13T11:42:27.892Z,100485.03
2022-12-13T11:45:31.820Z,100476.50
2022-12-13T11:48:20.333Z,100488.63
2022-12-13T11:51:11.239Z,100494.25
2022-12-13T11:54:09.272Z,100479.00
2022-12-13T11:57:00.086Z,100482.19
2022-12-13T12:00:02.663Z,100488.09
2022-12-13T12:02:56.847Z,100492.06
2022-12-13T12:05:55.760Z,100494.44
2022-12-13T12:09:01.899Z,100498.66
2022-12-13T12:12:22.004Z,100501.00
2022-12-13T12:15:26.481Z,100502.91
2022-12-13T12:18:17.197Z,100501.00
2022-12-13T12:21:05.039Z,100508.00
2022-12-13T12:24:26.956Z,100507.06
2022-12-13T12:27:26.119Z,100513.66
2022-12-13T12:30:23.026Z,100504.06
2022-12-13T12:33:49.766Z,100505.16
2022-12-13T12:37:02.889Z,100503.06
2022-12-13T12:40:22.608Z,100511.47
2022-12-13T12:43:25.891Z,100513.63
2022-12-13T12:46:52.371Z,100518.06
2022-12-13T12:50:16.806Z,100517.22
2022-12-13T12:53:40.415Z,100522.97
2022-12-13T12:56:57.190Z,100527.63
2022-12-13T13:00:24.298Z,100531.63
2022-12-13T13:03:26.519Z,100534.72
2022-12-13T13:06:40.669Z,100535.31
2022-12-13T13:09:27.344Z,100536.38
2022-12-13T13:12:28.907Z,100540.47
2022-12-13T13:15:33.430Z,100537.63
2022-12-13T13:18:51.920Z,100540.84
2022-12-13T13:22:02.473Z,100539.44
2022-12-13T13:25:26.067Z,100549.78
2022-12-13T13:28:17.896Z,100546.22
2022-12-13T13:31:09.275Z,100555.16
2022-12-13T13:33:54.827Z,100566.00
2022-12-13T13:36:41.115Z,100564.03
2022-12-13T13:39:29.460Z,100564.13
2022-12-13T13:42:15.061Z,100568.63
2022-12-13T13:45:23.619Z,100557.06
2022-12-13T13:49:09.656Z,100564.38
2022-12-13T13:52:25.325Z,100557.41
2022-12-13T13:55:45.571Z,100563.50
2022-12-13T13:59:13.397Z,100568.88
2022-12-13T14:02:41.839Z,100571.63
2022-12-13T14:06:02.686Z,100577.53
2022-12-13T14:09:23.579Z,100578.16
2022-12-13T14:13:13.565Z,100588.78
2022-12-13T14:16:06.455Z,100592.06
2022-12-13T14:19:06.717Z,100583.81
2022-12-13T14:22:10.160Z,100592.53
2022-12-13T14:25:27.685Z,100591.63
2022-12-13T14:28:13.564Z,100601.63
2022-12-13T14:30:47.789Z,100602.69
2022-12-13T14:33:26.600Z,100602.19
2022-12-13T14:35:56.329Z,100606.94
2022-12-13T14:38:27.037Z,100602.06
2022-12-13T14:41:00.037Z,100599.66
2022-12-13T14:43:33.130Z,100600.06
2022-12-13T14:46:07.240Z,100607.59
2022-12-13T14:48:53.774Z,100599.72
2022-12-13T14:51:38.310Z,100609.56
2022-12-13T14:54:25.925Z,100611.94
2022-12-13T14:57:04.959Z,100611.47
2022-12-13T14:59:33.596Z,100615.78
2022-12-13T15:02:04.892Z,100608.72
2022-12-13T15:04:36.054Z,100622.47
2022-12-13T15:07:07.612Z,100612.72
2022-12-13T15:09:44.567Z,100607.31
2022-12-13T15:12:24.682Z,100607.72
2022-12-13T15:15:03.053Z,100612.34
2022-12-13T15:17:40.860Z,100607.31
2022-12-13T15:20:32.050Z,100615.97
2022-12-13T15:23:19.433Z,100618.00
2022-12-13T15:25:59.140Z,100620.69
2022-12-13T15:28:34.583Z,100615.72
2022-12-13T15:31:04.583Z,100622.81
2022-12-13T15:33:36.546Z,100623.31
2022-12-13T15:36:23.629Z,100629.31
2022-12-13T15:38:56.483Z,100631.91
2022-12-13T15:41:33.899Z,100626.72
2022-12-13T15:44:08.095Z,100638.50
2022-12-13T15:46:38.235Z,100636.91
2022-12-13T15:49:23.571Z,100636.03
2022-12-13T15:51:57.474Z,100630.06
2022-12-13T15:54:24.899Z,100632.50
2022-12-13T15:57:15.820Z,100640.88
2022-12-13T15:59:44.555Z,100641.25
2022-12-13T16:02:23.519Z,100636.91
2022-12-13T16:04:51.517Z,100636.81
2022-12-13T16:07:40.297Z,100639.16
2022-12-13T16:10:08.959Z,100641.00
2022-12-13T16:12:47.879Z,100647.38
2022-12-13T16:15:49.404Z,100650.28
2022-12-13T16:18:32.124Z,100656.53
2022-12-13T16:20:59.933Z,100645.88
2022-12-13T16:23:27.688Z,100647.31
2022-12-13T16:25:55.337Z,100647.59
2022-12-13T16:28:25.920Z,100653.91
2022-12-13T16:30:53.267Z,100648.38
2022-12-13T16:33:30.529Z,100653.91
2022-12-13T16:36:00.080Z,100656.50
2022-12-13T16:38:30.165Z,100664.47
2022-12-13T16:41:00.841Z,100658.19
2022-12-13T16:43:52.835Z,100662.97
2022-12-13T16:47:14.732Z,100667.06
2022-12-13T16:49:21.167Z,100665.94
2022-12-13T16:51:55.044Z,100671.31
2022-12-13T16:54:26.326Z,100667.97
2022-12-13T16:56:54.580Z,100674.31
2022-12-13T16:59:27.055Z,100670.25
2022-12-13T17:01:54.747Z,100675.81
2022-12-13T17:04:24.653Z,100666.69
2022-12-13T17:06:55.081Z,100670.78
2022-12-13T17:09:24.344Z,100678.94
2022-12-13T17:11:51.562Z,100681.75
2022-12-13T17:14:20.826Z,100679.63
2022-12-13T17:16:48.001Z,100675.28
2022-12-13T17:19:15.804Z,100675.31
2022-12-13T17:21:43.147Z,100678.38
2022-12-13T17:24:10.282Z,100682.28
2022-12-13T17:26:37.290Z,100680.69
2022-12-13T17:29:04.740Z,100675.59
2022-12-13T17:31:35.691Z,100673.44
2022-12-13T17:34:04.519Z,100675.06
2022-12-13T17:36:34.123Z,100688.38
2022-12-13T17:39:03.973Z,100679.38
2022-12-13T17:41:31.067Z,100682.69
2022-12-13T17:44:01.291Z,100686.00
2022-12-13T17:46:28.472Z,100695.25
2022-12-13T17:48:55.487Z,100686.50
2022-12-13T17:51:22.681Z,100688.50
2022-12-13T17:53:49.685Z,100683.59
2022-12-13T17:56:17.732Z,100699.13
2022-12-13T17:58:45.039Z,100705.03
2022-12-13T18:01:26.631Z,100702.97
2022-12-13T18:03:57.809Z,100703.03
2022-12-13T18:06:26.243Z,100700.78
2022-12-13T18:08:53.603Z,100712.84
2022-12-13T18:11:33.010Z,100709.38
2022-12-13T18:14:02.246Z,100712.34
2022-12-13T18:16:36.214Z,100712.84
2022-12-13T18:19:12.293Z,100710.91
2022-12-13T18:21:43.641Z,100714.69
2022-12-13T18:24:12.355Z,100714.19
2022-12-13T18:26:39.479Z,100718.72
2022-12-13T18:29:06.718Z,100720.16
2022-12-13T18:31:33.851Z,100715.94
2022-12-13T18:34:00.992Z,100723.97
2022-12-13T18:36:28.329Z,100725.97
2022-12-13T18:38:55.642Z,100722.53
2022-12-13T18:41:28.227Z,100721.78
2022-12-13T18:44:08.172Z,100731.16
2022-12-13T18:46:38.213Z,100728.16
2022-12-13T18:49:06.746Z,100729.22
2022-12-13T18:51:34.254Z,100734.09
2022-12-13T18:54:01.378Z,100732.38
2022-12-13T18:56:28.481Z,100737.03
2022-12-13T18:58:59.535Z,100731.97
2022-12-13T19:01:28.134Z,100730.03
2022-12-13T19:03:55.417Z,100732.16
2022-12-13T19:06:27.620Z,100738.03
2022-12-13T19:08:56.610Z,100739.69
2022-12-13T19:11:26.346Z,100732.66
2022-12-13T19:13:53.982Z,100738.91
2022-12-13T19:16:26.166Z,100736.84
2022-12-13T19:18:57.422Z,100744.56
2022-12-13T19:21:24.546Z,100732.81
2022-12-13T19:23:57.304Z,100728.88
2022-12-13T19:26:25.423Z,100732.38
2022-12-13T19:28:52.437Z,100727.59
2022-12-13T19:31:25.564Z,100734.13
2022-12-13T19:34:02.361Z,100733.09
2022-12-13T19:36:32.186Z,100737.91
2022-12-13T19:38:59.381Z,100731.03
2022-12-13T19:41:26.635Z,100728.47
2022-12-13T19:43:55.897Z,100732.22
2022-12-13T19:46:23.040Z,100735.03
2022-12-13T19:48:51.064Z,100736.00
2022-12-13T19:51:18.478Z,100743.09
2022-12-13T19:53:45.503Z,100736.94
2022-12-13T19:56:17.814Z,100737.69
2022-12-13T19:58:47.115Z,100739.69
2022-12-13T20:01:17.453Z,100747.66
2022-12-13T20:03:46.481Z,100740.56
2022-12-13T20:06:18.458Z,100735.34
2022-12-13T20:08:46.482Z,100737.72
2022-12-13T20:11:21.202Z,100729.78
2022-12-13T20:13:52.719Z,100734.41
2022-12-13T20:16:24.451Z,100738.03
2022-12-13T20:18:59.914Z,100740.78
2022-12-13T20:21:28.710Z,100733.41
2022-12-13T20:23:56.529Z,100731.69
2022-12-13T20:26:29.666Z,100741.19
2022-12-13T20:28:56.991Z,100735.09
2022-12-13T20:31:31.154Z,100737.50
2022-12-13T20:34:02.333Z,100739.41
2022-12-13T20:36:32.907Z,100736.22
2022-12-13T20:39:02.197Z,100741.81
2022-12-13T20:41:34.610Z,100741.81
2022-12-13T20:44:04.957Z,100736.88
2022-12-13T20:46:32.670Z,100737.91
2022-12-13T20:49:06.324Z,100735.72
2022-12-13T20:51:34.937Z,100729.75
2022-12-13T20:54:05.464Z,100730.59
2022-12-13T20:56:35.921Z,100736.88
2022-12-13T20:59:08.749Z,100739.34
2022-12-13T21:01:41.010Z,100734.63
2022-12-13T21:04:11.175Z,100736.94
2022-12-13T21:06:42.869Z,100738.41
2022-12-13T21:09:11.563Z,100744.44
2022-12-13T21:11:44.089Z,100742.06
2022-12-13T21:14:22.251Z,100737.75
2022-12-13T21:17:00.235Z,100737.09
2022-12-13T21:19:39.450Z,100747.47
2022-12-13T21:22:07.213Z,100750.47
2022-12-13T21:24:34.395Z,100750.00
2022-12-13T21:27:01.542Z,100753.16
2022-12-13T21:29:28.685Z,100747.19
2022-12-13T21:31:56.185Z,100762.03
2022-12-13T21:34:23.711Z,100761.00
2022-12-13T21:36:52.755Z,100765.16
2022-12-13T21:39:23.348Z,100763.13
2022-12-13T21:41:51.594Z,100761.97
2022-12-13T21:44:19.538Z,100764.59
2022-12-13T21:47:22.300Z,100764.66
2022-12-13T21:49:35.538Z,100768.44
2022-12-13T21:52:02.681Z,100761.44
2022-12-13T21:54:29.720Z,100769.59
2022-12-13T21:57:15.165Z,100768.78
2022-12-13T21:59:42.225Z,100758.19
2022-12-13T22:02:18.702Z,100768.97
2022-12-13T22:04:51.016Z,100763.56
2022-12-13T22:07:32.544Z,100762.31
2022-12-13T22:10:01.573Z,100759.00
2022-12-13T22:12:38.488Z,100771.16
2022-12-13T22:15:15.990Z,100764.31
2022-12-13T22:17:43.436Z,100770.56
2022-12-13T22:20:14.286Z,100764.03
2022-12-13T22:22:44.237Z,100763.81
2022-12-13T22:25:11.500Z,100767.97
2022-12-13T22:27:38.687Z,100765.88
2022-12-13T22:30:06.804Z,100758.84
2022-12-13T22:32:34.036Z,100753.03
2022-12-13T22:35:04.850Z,100750.00
2022-12-13T22:37:33.331Z,100757.16
2022-12-13T22:40:08.378Z,100760.47
2022-12-13T22:42:35.796Z,100764.41
2022-12-13T22:45:03.019Z,100759.25
2022-12-13T22:47:32.698Z,100753.22
2022-12-13T22:49:59.802Z,100757.16
2022-12-13T22:52:32.008Z,100757.81
2022-12-13T22:55:00.881Z,100748.75
2022-12-13T22:57:27.957Z,100752.19
2022-12-13T22:59:55.053Z,100748.25
2022-12-13T23:02:24.595Z,100746.72
2022-12-13T23:04:51.785Z,100747.63
2022-12-13T23:07:18.892Z,100754.78
2022-12-13T23:09:46.178Z,100757.16
2022-12-13T23:12:31.618Z,100757.88
2022-12-13T23:14:58.749Z,100763.59
2022-12-13T23:17:25.870Z,100762.34
2022-12-13T23:19:53.636Z,100764.22
2022-12-13T23:22:25.664Z,100766.25
2022-12-13T23:24:56.282Z,100756.31
2022-12-13T23:27:24.452Z,100763.13
2022-12-13T23:29:51.640Z,100755.66
2022-12-13T23:32:19.006Z,100752.38
2022-12-13T23:34:48.571Z,100749.66
2022-12-13T23:37:15.807Z,100758.56
2022-12-13T23:39:42.985Z,100752.47
2022-12-13T23:42:11.198Z,100743.66
2022-12-13T23:44:38.315Z,100754.72
2022-12-13T23:47:05.396Z,100755.13
2022-12-13T23:49:34.664Z,100750.78
2022-12-13T23:52:01.654Z,100743.53
2022-12-13T23:54:31.108Z,100737.53
2022-12-13T23:56:58.286Z,100743.97
2022-12-13T23:59:27.257Z,100736.09
